| time (UTC) | temp F | wind direction | speed MPH | gust MPH | rain 1hr in | rain 24hr in | rain mn in | humidity % | barometer mb |
| 20260902191542 | 69 | 247 | 4.0 | 9.0 | 0.00 | 0.00 | 0.00 | 17 | 1008.3 |
| 20260902190042 | 67 | 304 | 3.0 | 8.0 | 0.00 | 0.00 | 0.00 | 18 | 1008.5 |
| 20260902184542 | 66 | 311 | 4.0 | 7.0 | 0.00 | 0.00 | 0.00 | 19 | 1008.6 |
| 20260902183038 | 65 | 310 | 2.0 | 7.0 | 0.00 | 0.00 | 0.00 | 19 | 1008.7 |
| 20260902181540 | 65 | 229 | 5.0 | 12.0 | 0.00 | 0.00 | 0.00 | 19 | 1008.8 |
| 20260902180007 | 65 | 264 | 3.0 | 9.0 | 0.00 | 0.00 | 0.00 | 19 | 1008.8 |
| 20260902174510 | 64 | 248 | 2.0 | 11.0 | 0.00 | 0.00 | 0.00 | 19 | 1008.8 |
| 20260902173007 | 64 | 255 | 4.0 | 9.0 | 0.00 | 0.00 | 0.00 | 20 | 1008.8 |
| 20260902171504 | 64 | 300 | 2.0 | 8.0 | 0.00 | 0.00 | 0.00 | 19 | 1008.9 |
| 20260902170002 | 63 | 270 | 3.0 | 7.0 | 0.00 | 0.00 | 0.00 | 19 | 1008.9 |
| 20260902164501 | 63 | 222 | 4.0 | 8.0 | 0.00 | 0.00 | 0.00 | 20 | 1008.7 |
| 20260902163100 | 62 | 223 | 3.0 | 6.0 | 0.00 | 0.00 | 0.00 | 21 | 1008.7 |
| 20260902161559 | 60 | 218 | 0.0 | 4.0 | 0.00 | 0.00 | 0.00 | 22 | 1008.5 |
| 20260902160108 | 60 | 198 | 1.0 | 4.0 | 0.00 | 0.00 | 0.00 | 22 | 1008.5 |
| 20260902154602 | 59 | 228 | 1.0 | 4.0 | 0.00 | 0.00 | 0.00 | 22 | 1008.6 |
| 20260902153054 | 58 | 292 | 1.0 | 4.0 | 0.00 | 0.00 | 0.00 | 23 | 1008.5 |
| 20260902151558 | 57 | 311 | 0.0 | 4.0 | 0.00 | 0.00 | 0.00 | 25 | 1008.4 |
| 20260902150051 | 55 | 312 | 1.0 | 4.0 | 0.00 | 0.00 | 0.00 | 26 | 1008.3 |
| 20260902144550 | 53 | 231 | 0.0 | 0.0 | 0.00 | 0.00 | 0.00 | 27 | 1008.2 |
| 20260902143049 | 54 | 229 | 0.0 | 1.0 | 0.00 | 0.00 | 0.00 | 26 | 1008.1 |
| 20260902141548 | 52 | 210 | 0.0 | 1.0 | 0.00 | 0.00 | 0.00 | 29 | 1008.3 |
| 20260902140048 | 52 | 138 | 0.0 | 3.0 | 0.00 | 0.00 | 0.00 | 28 | 1008.0 |
| 20260902134547 | 51 | 265 | 0.0 | 1.0 | 0.00 | 0.00 | 0.00 | 28 | 1008.1 |
| 20260902133047 | 50 | 140 | 0.0 | 2.0 | 0.00 | 0.00 | 0.00 | 29 | 1008.1 |
| 20260902131543 | 49 | 156 | 0.0 | 4.0 | 0.00 | 0.00 | 0.00 | 30 | 1007.9 |
| 20260902130039 | 48 | 139 | 2.0 | 4.0 | 0.00 | 0.00 | 0.00 | 30 | 1007.7 |
| 20260902124539 | 48 | 152 | 0.0 | 2.0 | 0.00 | 0.00 | 0.00 | 30 | 1007.6 |
| 20260902123036 | 49 | 200 | 0.0 | 1.0 | 0.00 | 0.00 | 0.00 | 30 | 1007.2 |
| 20260902121532 | 50 | 212 | 0.0 | 4.0 | 0.00 | 0.00 | 0.00 | 29 | 1007.0 |
| 20260902120031 | 48 | 203 | 0.0 | 2.0 | 0.00 | 0.00 | 0.00 | 30 | 1006.6 |
| 20260902114537 | 49 | 150 | 0.0 | 2.0 | 0.00 | 0.00 | 0.00 | 30 | 1006.4 |
| 20260902113025 | 49 | 145 | 0.0 | 3.0 | 0.00 | 0.00 | 0.00 | 30 | 1006.3 |
| 20260902111552 | 48 | 207 | 0.0 | 1.0 | 0.00 | 0.00 | 0.00 | 30 | 1006.3 |
| 20260902110049 | 49 | 176 | 0.0 | 1.0 | 0.00 | 0.00 | 0.00 | 29 | 1006.1 |
| 20260902104607 | 51 | 152 | 0.0 | 3.0 | 0.00 | 0.00 | 0.00 | 29 | 1005.7 |
| 20260902103039 | 53 | 230 | 1.0 | 3.0 | 0.00 | 0.00 | 0.00 | 25 | 1005.6 |
| 20260902101536 | 54 | 221 | 0.0 | 6.0 | 0.00 | 0.00 | 0.00 | 24 | 1005.4 |
| 20260902100038 | 54 | 192 | 0.0 | 5.0 | 0.00 | 0.00 | 0.00 | 24 | 1005.2 |
| 20260902094529 | 55 | 195 | 0.0 | 3.0 | 0.00 | 0.00 | 0.00 | 26 | 1005.0 |
| 20260902093030 | 57 | 181 | 1.0 | 7.0 | 0.00 | 0.00 | 0.00 | 23 | 1005.2 |
| 20260902091524 | 58 | 229 | 7.0 | 11.0 | 0.00 | 0.00 | 0.00 | 21 | 1005.2 |
| 20260902090020 | 58 | 224 | 3.0 | 10.0 | 0.00 | 0.00 | 0.00 | 22 | 1005.0 |
| 20260902084552 | 59 | 186 | 8.0 | 16.0 | 0.00 | 0.00 | 0.00 | 21 | 1004.5 |
| 20260902083059 | 61 | 219 | 8.0 | 12.0 | 0.00 | 0.00 | 0.00 | 19 | 1004.4 |
| 20260902081603 | 63 | 213 | 6.0 | 11.0 | 0.00 | 0.00 | 0.00 | 18 | 1004.2 |
| 20260902080050 | 64 | 198 | 5.0 | 13.0 | 0.00 | 0.00 | 0.00 | 17 | 1004.2 |
| 20260902074543 | 65 | 163 | 5.0 | 12.0 | 0.00 | 0.00 | 0.00 | 17 | 1004.1 |
| 20260902073037 | 64 | 153 | 5.0 | 13.0 | 0.00 | 0.00 | 0.00 | 17 | 1003.8 |
| 20260902071506 | 62 | 218 | 5.0 | 8.0 | 0.00 | 0.00 | 0.00 | 19 | 1003.9 |
| 20260902070007 | 60 | 163 | 4.0 | 9.0 | 0.00 | 0.00 | 0.00 | 21 | 1003.9 |
| 20260902064501 | 61 | 217 | 8.0 | 12.0 | 0.00 | 0.00 | 0.00 | 21 | 1003.9 |
| 20260902063132 | 61 | 219 | 8.0 | 12.0 | 0.00 | 0.00 | 0.00 | 20 | 1003.6 |
| 20260902061558 | 62 | 214 | 5.0 | 11.0 | 0.00 | 0.00 | 0.00 | 20 | 1003.6 |
| 20260902060126 | 62 | 191 | 5.0 | 11.0 | 0.00 | 0.00 | 0.00 | 20 | 1003.5 |
| 20260902054525 | 62 | 213 | 8.0 | 14.0 | 0.00 | 0.00 | 0.00 | 19 | 1003.5 |
| 20260902053021 | 63 | 205 | 8.0 | 14.0 | 0.00 | 0.00 | 0.00 | 19 | 1003.4 |
| 20260902051518 | 64 | 217 | 8.0 | 12.0 | 0.00 | 0.00 | 0.00 | 18 | 1003.4 |
| 20260902050021 | 64 | 162 | 5.0 | 11.0 | 0.00 | 0.00 | 0.00 | 18 | 1003.4 |
| 20260902044533 | 62 | 201 | 6.0 | 11.0 | 0.00 | 0.00 | 0.00 | 19 | 1003.2 |
| 20260902043012 | 60 | 210 | 4.0 | 7.0 | 0.00 | 0.00 | 0.00 | 20 | 1003.2 |
| 20260902041541 | 60 | 146 | 0.0 | 2.0 | 0.00 | 0.00 | 0.00 | 20 | 1003.2 |
| 20260902040037 | 62 | 207 | 0.0 | 5.0 | 0.00 | 0.00 | 0.00 | 19 | 1003.0 |
| 20260902034501 | 64 | 203 | 2.0 | 6.0 | 0.00 | 0.00 | 0.00 | 18 | 1002.8 |
| 20260902033111 | 65 | 198 | 4.0 | 8.0 | 0.00 | 0.00 | 0.00 | 17 | 1002.7 |
| 20260902031554 | 67 | 219 | 3.0 | 8.0 | 0.00 | 0.00 | 0.00 | 16 | 1002.5 |
| 20260902030054 | 64 | 231 | 3.0 | 6.0 | 0.00 | 0.00 | 0.00 | 17 | 1002.3 |
| 20260902024554 | 65 | 160 | 0.0 | 4.0 | 0.00 | 0.00 | 0.00 | 16 | 1002.2 |
| 20260902023047 | 68 | 161 | 2.0 | 5.0 | 0.00 | 0.00 | 0.00 | 14 | 1002.0 |
| 20260902021544 | 70 | 158 | 3.0 | 5.0 | 0.00 | 0.00 | 0.00 | 13 | 1001.9 |
| 20260902020039 | 73 | 210 | 3.0 | 7.0 | 0.00 | 0.00 | 0.00 | 11 | 1001.8 |
| 20260902014544 | 75 | 224 | 4.0 | 11.0 | 0.00 | 0.00 | 0.00 | 10 | 1001.8 |
| 20260902013025 | 78 | 226 | 7.0 | 14.0 | 0.00 | 0.00 | 0.00 | 9 | 1001.9 |
| 20260902011519 | 79 | 210 | 5.0 | 12.0 | 0.00 | 0.00 | 0.00 | 10 | 1002.0 |
| 20260902010020 | 81 | 188 | 7.0 | 18.0 | 0.00 | 0.00 | 0.00 | 9 | 1002.0 |
| 20260902004518 | 81 | 195 | 6.0 | 18.0 | 0.00 | 0.00 | 0.00 | 9 | 1002.1 |
| 20260902003013 | 81 | 161 | 8.0 | 17.0 | 0.00 | 0.00 | 0.00 | 9 | 1002.1 |
| 20260902001511 | 81 | 229 | 10.0 | 18.0 | 0.00 | 0.00 | 0.00 | 9 | 1002.1 |
| 20260902000005 | 81 | 231 | 8.0 | 17.0 | 0.00 | 0.00 | 0.00 | 9 | 1002.5 |
| 20260901234509 | 81 | 176 | 11.0 | 20.0 | 0.00 | 0.00 | 0.00 | 9 | 1002.6 |
| 20260901233002 | 81 | 198 | 10.0 | 22.0 | 0.00 | 0.00 | 0.00 | 10 | 1002.7 |
| 20260901231600 | 81 | 179 | 11.0 | 25.0 | 0.00 | 0.00 | 0.00 | 10 | 1002.8 |
| 20260901230057 | 82 | 186 | 8.0 | 16.0 | 0.00 | 0.00 | 0.00 | 10 | 1003.0 |
| 20260901224555 | 82 | 193 | 6.0 | 14.0 | 0.00 | 0.00 | 0.00 | 11 | 1003.1 |
| 20260901223100 | 81 | 229 | 13.0 | 21.0 | 0.00 | 0.00 | 0.00 | 12 | 1003.2 |
| 20260901221610 | 81 | 211 | 5.0 | 18.0 | 0.00 | 0.00 | 0.00 | 14 | 1003.3 |
| 20260901220047 | 80 | 231 | 14.0 | 20.0 | 0.00 | 0.00 | 0.00 | 12 | 1003.4 |
| 20260901214547 | 81 | 207 | 11.0 | 19.0 | 0.00 | 0.00 | 0.00 | 14 | 1003.5 |
| 20260901213043 | 80 | 205 | 10.0 | 20.0 | 0.00 | 0.00 | 0.00 | 15 | 1003.7 |
| 20260901211542 | 80 | 134 | 12.0 | 24.0 | 0.00 | 0.00 | 0.00 | 15 | 1004.0 |
| 20260901210016 | 80 | 229 | 13.0 | 26.0 | 0.00 | 0.00 | 0.00 | 16 | 1004.0 |
| 20260901204509 | 80 | 237 | 16.0 | 25.0 | 0.00 | 0.00 | 0.00 | 17 | 1004.2 |
| 20260901203004 | 79 | 212 | 14.0 | 24.0 | 0.00 | 0.00 | 0.00 | 18 | 1004.3 |
| 20260901201511 | 78 | 194 | 9.0 | 21.0 | 0.00 | 0.00 | 0.00 | 21 | 1004.5 |
| 20260901200001 | 78 | 120 | 14.0 | 27.0 | 0.00 | 0.00 | 0.00 | 21 | 1004.8 |
| 20260901194600 | 78 | 236 | 13.0 | 21.0 | 0.00 | 0.00 | 0.00 | 21 | 1005.0 |
| 20260901193029 | 78 | 222 | 10.0 | 26.0 | 0.00 | 0.00 | 0.00 | 20 | 1005.0 |